sensor_id;sensor_type;location;lat;lon;timestamp;temperature;humidity
16655;DHT22;8441;51.344;7.022;2023-06-14T00:00:12;17.10;89.10
16655;DHT22;8441;51.344;7.022;2023-06-14T00:02:42;17.10;89.50
16655;DHT22;8441;51.344;7.022;2023-06-14T00:05:09;17.00;90.10
16655;DHT22;8441;51.344;7.022;2023-06-14T00:07:40;17.00;89.80
16655;DHT22;8441;51.344;7.022;2023-06-14T00:10:10;16.90;90.30
16655;DHT22;8441;51.344;7.022;2023-06-14T00:12:38;16.90;90.90
16655;DHT22;8441;51.344;7.022;2023-06-14T00:15:07;16.80;90.70
16655;DHT22;8441;51.344;7.022;2023-06-14T00:17:35;16.80;90.60
16655;DHT22;8441;51.344;7.022;2023-06-14T00:20:06;16.80;89.40
16655;DHT22;8441;51.344;7.022;2023-06-14T00:22:35;16.80;90.50
16655;DHT22;8441;51.344;7.022;2023-06-14T00:25:03;16.80;90.50
16655;DHT22;8441;51.344;7.022;2023-06-14T00:27:30;16.80;90.80
16655;DHT22;8441;51.344;7.022;2023-06-14T00:29:58;16.80;90.60
16655;DHT22;8441;51.344;7.022;2023-06-14T00:32:25;16.80;90.50
16655;DHT22;8441;51.344;7.022;2023-06-14T00:34:53;16.80;90.50
16655;DHT22;8441;51.344;7.022;2023-06-14T00:37:22;16.80;90.70
16655;DHT22;8441;51.344;7.022;2023-06-14T00:39:49;16.80;90.50
16655;DHT22;8441;51.344;7.022;2023-06-14T00:42:26;16.80;90.30
16655;DHT22;8441;51.344;7.022;2023-06-14T00:44:53;16.70;90.30
16655;DHT22;8441;51.344;7.022;2023-06-14T00:47:21;16.70;91.00
16655;DHT22;8441;51.344;7.022;2023-06-14T00:49:49;16.70;90.70
16655;DHT22;8441;51.344;7.022;2023-06-14T00:52:17;16.60;90.70
16655;DHT22;8441;51.344;7.022;2023-06-14T00:54:46;16.60;91.00
16655;DHT22;8441;51.344;7.022;2023-06-14T00:57:13;16.50;91.60
16655;DHT22;8441;51.344;7.022;2023-06-14T00:59:43;16.40;91.70
16655;DHT22;8441;51.344;7.022;2023-06-14T01:02:11;16.40;91.50
16655;DHT22;8441;51.344;7.022;2023-06-14T01:04:39;16.40;91.90
16655;DHT22;8441;51.344;7.022;2023-06-14T01:07:11;16.40;91.60
16655;DHT22;8441;51.344;7.022;2023-06-14T01:09:58;16.40;91.70
16655;DHT22;8441;51.344;7.022;2023-06-14T01:12:36;16.30;91.90
16655;DHT22;8441;51.344;7.022;2023-06-14T01:15:06;16.30;92.10
16655;DHT22;8441;51.344;7.022;2023-06-14T01:17:34;16.30;92.40
16655;DHT22;8441;51.344;7.022;2023-06-14T01:20:02;16.20;92.90
16655;DHT22;8441;51.344;7.022;2023-06-14T01:22:35;16.10;93.10
16655;DHT22;8441;51.344;7.022;2023-06-14T01:25:05;16.10;93.10
16655;DHT22;8441;51.344;7.022;2023-06-14T01:27:33;16.10;93.40
16655;DHT22;8441;51.344;7.022;2023-06-14T01:30:00;16.00;94.00
16655;DHT22;8441;51.344;7.022;2023-06-14T01:32:29;15.90;94.10
16655;DHT22;8441;51.344;7.022;2023-06-14T01:34:57;15.90;94.10
16655;DHT22;8441;51.344;7.022;2023-06-14T01:37:24;15.80;94.20
16655;DHT22;8441;51.344;7.022;2023-06-14T01:39:53;15.80;95.00
16655;DHT22;8441;51.344;7.022;2023-06-14T01:42:23;15.70;95.10
16655;DHT22;8441;51.344;7.022;2023-06-14T01:44:52;15.70;95.70
16655;DHT22;8441;51.344;7.022;2023-06-14T01:47:21;15.60;95.80
16655;DHT22;8441;51.344;7.022;2023-06-14T01:49:48;15.60;96.00
16655;DHT22;8441;51.344;7.022;2023-06-14T01:52:15;15.60;96.20
16655;DHT22;8441;51.344;7.022;2023-06-14T01:54:45;15.50;96.90
16655;DHT22;8441;51.344;7.022;2023-06-14T01:57:13;15.50;97.40
16655;DHT22;8441;51.344;7.022;2023-06-14T01:59:41;15.40;97.70
16655;DHT22;8441;51.344;7.022;2023-06-14T02:02:14;15.30;98.00
16655;DHT22;8441;51.344;7.022;2023-06-14T02:04:41;15.20;98.10
16655;DHT22;8441;51.344;7.022;2023-06-14T02:07:08;15.20;98.60
16655;DHT22;8441;51.344;7.022;2023-06-14T02:09:36;15.20;98.50
16655;DHT22;8441;51.344;7.022;2023-06-14T02:12:03;15.20;99.00
16655;DHT22;8441;51.344;7.022;2023-06-14T02:14:31;15.10;99.30
16655;DHT22;8441;51.344;7.022;2023-06-14T02:17:00;15.10;98.90
16655;DHT22;8441;51.344;7.022;2023-06-14T02:19:28;15.10;98.90
16655;DHT22;8441;51.344;7.022;2023-06-14T02:21:55;15.10;99.00
16655;DHT22;8441;51.344;7.022;2023-06-14T02:24:22;15.10;99.50
16655;DHT22;8441;51.344;7.022;2023-06-14T02:26:50;15.10;99.40
16655;DHT22;8441;51.344;7.022;2023-06-14T02:29:17;15.10;99.50
16655;DHT22;8441;51.344;7.022;2023-06-14T02:31:44;15.00;99.90
16655;DHT22;8441;51.344;7.022;2023-06-14T02:34:15;15.00;99.90
16655;DHT22;8441;51.344;7.022;2023-06-14T02:36:43;14.90;99.90
16655;DHT22;8441;51.344;7.022;2023-06-14T02:39:11;14.90;99.90
16655;DHT22;8441;51.344;7.022;2023-06-14T02:41:38;14.90;99.90
16655;DHT22;8441;51.344;7.022;2023-06-14T02:44:06;14.80;99.90
16655;DHT22;8441;51.344;7.022;2023-06-14T02:46:33;14.80;99.90
16655;DHT22;8441;51.344;7.022;2023-06-14T02:49:00;14.80;99.90
16655;DHT22;8441;51.344;7.022;2023-06-14T02:51:29;14.70;99.90
16655;DHT22;8441;51.344;7.022;2023-06-14T02:53:56;14.70;99.90
16655;DHT22;8441;51.344;7.022;2023-06-14T02:56:24;14.70;99.90
16655;DHT22;8441;51.344;7.022;2023-06-14T02:58:51;14.70;99.90
16655;DHT22;8441;51.344;7.022;2023-06-14T03:01:19;14.70;99.90
16655;DHT22;8441;51.344;7.022;2023-06-14T03:03:47;14.70;99.90
16655;DHT22;8441;51.344;7.022;2023-06-14T03:06:14;14.60;99.90
16655;DHT22;8441;51.344;7.022;2023-06-14T03:08:43;14.60;99.90
16655;DHT22;8441;51.344;7.022;2023-06-14T03:11:11;14.60;99.90
16655;DHT22;8441;51.344;7.022;2023-06-14T03:13:39;14.60;99.90
16655;DHT22;8441;51.344;7.022;2023-06-14T03:16:06;14.50;99.90
16655;DHT22;8441;51.344;7.022;2023-06-14T03:18:34;14.50;99.90
16655;DHT22;8441;51.344;7.022;2023-06-14T03:21:02;14.50;99.90
16655;DHT22;8441;51.344;7.022;2023-06-14T03:23:30;14.40;99.90
16655;DHT22;8441;51.344;7.022;2023-06-14T03:25:58;14.40;99.90
16655;DHT22;8441;51.344;7.022;2023-06-14T03:28:26;14.40;99.90
16655;DHT22;8441;51.344;7.022;2023-06-14T03:30:53;14.40;99.90
16655;DHT22;8441;51.344;7.022;2023-06-14T03:33:20;14.50;99.90
16655;DHT22;8441;51.344;7.022;2023-06-14T03:35:48;14.50;99.90
16655;DHT22;8441;51.344;7.022;2023-06-14T03:38:15;14.50;99.90
16655;DHT22;8441;51.344;7.022;2023-06-14T03:40:42;14.50;99.90
16655;DHT22;8441;51.344;7.022;2023-06-14T03:43:11;14.50;99.90
16655;DHT22;8441;51.344;7.022;2023-06-14T03:45:38;14.50;99.90
16655;DHT22;8441;51.344;7.022;2023-06-14T03:48:05;14.50;99.90
16655;DHT22;8441;51.344;7.022;2023-06-14T03:50:34;14.50;99.90
16655;DHT22;8441;51.344;7.022;2023-06-14T03:53:04;14.50;99.90
16655;DHT22;8441;51.344;7.022;2023-06-14T03:55:31;14.60;99.90
16655;DHT22;8441;51.344;7.022;2023-06-14T03:57:59;14.50;99.90
16655;DHT22;8441;51.344;7.022;2023-06-14T04:00:27;14.50;99.90
16655;DHT22;8441;51.344;7.022;2023-06-14T04:02:55;14.60;99.90
16655;DHT22;8441;51.344;7.022;2023-06-14T04:05:22;14.60;99.90
16655;DHT22;8441;51.344;7.022;2023-06-14T04:07:52;14.60;99.90
16655;DHT22;8441;51.344;7.022;2023-06-14T04:10:21;14.50;99.90
16655;DHT22;8441;51.344;7.022;2023-06-14T04:12:48;14.60;99.90
16655;DHT22;8441;51.344;7.022;2023-06-14T04:15:16;14.60;99.90
16655;DHT22;8441;51.344;7.022;2023-06-14T04:17:45;14.60;99.90
16655;DHT22;8441;51.344;7.022;2023-06-14T04:20:12;14.60;99.90
16655;DHT22;8441;51.344;7.022;2023-06-14T04:22:39;14.60;99.90
16655;DHT22;8441;51.344;7.022;2023-06-14T04:25:07;14.50;99.90
16655;DHT22;8441;51.344;7.022;2023-06-14T04:27:35;14.50;99.90
16655;DHT22;8441;51.344;7.022;2023-06-14T04:30:02;14.60;99.90
16655;DHT22;8441;51.344;7.022;2023-06-14T04:32:30;14.60;99.90
16655;DHT22;8441;51.344;7.022;2023-06-14T04:35:01;14.60;99.90
16655;DHT22;8441;51.344;7.022;2023-06-14T04:37:29;14.70;99.90
16655;DHT22;8441;51.344;7.022;2023-06-14T04:39:56;14.70;99.90
16655;DHT22;8441;51.344;7.022;2023-06-14T04:42:24;14.70;99.90
16655;DHT22;8441;51.344;7.022;2023-06-14T04:44:57;14.80;99.90
16655;DHT22;8441;51.344;7.022;2023-06-14T04:47:24;14.90;99.90
16655;DHT22;8441;51.344;7.022;2023-06-14T04:49:56;14.90;99.90
16655;DHT22;8441;51.344;7.022;2023-06-14T04:52:25;15.10;99.90
16655;DHT22;8441;51.344;7.022;2023-06-14T04:54:52;15.10;99.90
16655;DHT22;8441;51.344;7.022;2023-06-14T04:57:20;15.20;99.90
16655;DHT22;8441;51.344;7.022;2023-06-14T04:59:48;15.20;99.90
16655;DHT22;8441;51.344;7.022;2023-06-14T05:02:21;15.30;99.90
16655;DHT22;8441;51.344;7.022;2023-06-14T05:04:50;15.40;99.90
16655;DHT22;8441;51.344;7.022;2023-06-14T05:07:17;15.50;99.90
16655;DHT22;8441;51.344;7.022;2023-06-14T05:09:46;15.50;99.90
16655;DHT22;8441;51.344;7.022;2023-06-14T05:12:13;15.60;99.90
16655;DHT22;8441;51.344;7.022;2023-06-14T05:14:44;15.60;99.90
16655;DHT22;8441;51.344;7.022;2023-06-14T05:17:11;15.60;99.90
16655;DHT22;8441;51.344;7.022;2023-06-14T05:19:38;15.60;99.90
16655;DHT22;8441;51.344;7.022;2023-06-14T05:22:05;15.70;99.90
16655;DHT22;8441;51.344;7.022;2023-06-14T05:24:33;15.80;99.90
16655;DHT22;8441;51.344;7.022;2023-06-14T05:27:01;15.80;99.90
16655;DHT22;8441;51.344;7.022;2023-06-14T05:29:29;15.80;99.90
16655;DHT22;8441;51.344;7.022;2023-06-14T05:31:56;15.90;99.90
16655;DHT22;8441;51.344;7.022;2023-06-14T05:34:23;16.00;99.90
16655;DHT22;8441;51.344;7.022;2023-06-14T05:36:50;16.00;99.90
16655;DHT22;8441;51.344;7.022;2023-06-14T05:39:17;16.00;99.90
16655;DHT22;8441;51.344;7.022;2023-06-14T05:41:45;16.20;99.90
16655;DHT22;8441;51.344;7.022;2023-06-14T05:44:13;16.30;99.90
16655;DHT22;8441;51.344;7.022;2023-06-14T05:46:41;16.40;99.50
16655;DHT22;8441;51.344;7.022;2023-06-14T05:49:08;16.60;99.70
16655;DHT22;8441;51.344;7.022;2023-06-14T05:51:35;16.80;98.40
16655;DHT22;8441;51.344;7.022;2023-06-14T05:54:03;17.00;98.50
16655;DHT22;8441;51.344;7.022;2023-06-14T05:56:30;17.10;97.80
16655;DHT22;8441;51.344;7.022;2023-06-14T05:58:57;17.20;98.30
16655;DHT22;8441;51.344;7.022;2023-06-14T06:01:25;17.20;97.80
16655;DHT22;8441;51.344;7.022;2023-06-14T06:03:53;17.30;98.00
16655;DHT22;8441;51.344;7.022;2023-06-14T06:06:20;17.30;98.30
16655;DHT22;8441;51.344;7.022;2023-06-14T06:08:48;17.40;96.80
16655;DHT22;8441;51.344;7.022;2023-06-14T06:11:15;17.50;97.30
16655;DHT22;8441;51.344;7.022;2023-06-14T06:13:43;17.50;96.60
16655;DHT22;8441;51.344;7.022;2023-06-14T06:16:10;17.70;96.00
16655;DHT22;8441;51.344;7.022;2023-06-14T06:18:38;17.90;96.10
16655;DHT22;8441;51.344;7.022;2023-06-14T06:21:06;18.30;96.20
16655;DHT22;8441;51.344;7.022;2023-06-14T06:23:33;18.60;95.10
16655;DHT22;8441;51.344;7.022;2023-06-14T06:26:01;19.00;94.60
16655;DHT22;8441;51.344;7.022;2023-06-14T06:28:28;19.80;92.80
16655;DHT22;8441;51.344;7.022;2023-06-14T06:30:55;20.20;92.10
16655;DHT22;8441;51.344;7.022;2023-06-14T06:33:23;20.60;92.10
16655;DHT22;8441;51.344;7.022;2023-06-14T06:35:52;20.80;91.00
16655;DHT22;8441;51.344;7.022;2023-06-14T06:38:19;21.00;90.60
16655;DHT22;8441;51.344;7.022;2023-06-14T06:40:46;20.70;91.00
16655;DHT22;8441;51.344;7.022;2023-06-14T06:43:13;20.60;91.20
16655;DHT22;8441;51.344;7.022;2023-06-14T06:45:42;20.30;91.20
16655;DHT22;8441;51.344;7.022;2023-06-14T06:48:09;19.80;91.70
16655;DHT22;8441;51.344;7.022;2023-06-14T06:50:37;19.40;91.50
16655;DHT22;8441;51.344;7.022;2023-06-14T06:53:05;19.10;91.60
16655;DHT22;8441;51.344;7.022;2023-06-14T06:55:32;18.90;92.00
16655;DHT22;8441;51.344;7.022;2023-06-14T06:57:59;18.90;92.60
16655;DHT22;8441;51.344;7.022;2023-06-14T07:00:27;18.90;92.40
16655;DHT22;8441;51.344;7.022;2023-06-14T07:02:54;18.80;91.50
16655;DHT22;8441;51.344;7.022;2023-06-14T07:05:22;18.80;91.40
16655;DHT22;8441;51.344;7.022;2023-06-14T07:07:50;18.80;91.40
16655;DHT22;8441;51.344;7.022;2023-06-14T07:10:18;18.70;91.80
16655;DHT22;8441;51.344;7.022;2023-06-14T07:12:45;18.80;92.30
16655;DHT22;8441;51.344;7.022;2023-06-14T07:15:13;18.90;91.40
16655;DHT22;8441;51.344;7.022;2023-06-14T07:17:40;18.90;91.30
16655;DHT22;8441;51.344;7.022;2023-06-14T07:20:09;19.00;91.80
16655;DHT22;8441;51.344;7.022;2023-06-14T07:22:39;19.20;91.70
16655;DHT22;8441;51.344;7.022;2023-06-14T07:25:08;19.50;90.80
16655;DHT22;8441;51.344;7.022;2023-06-14T07:27:37;19.70;88.90
16655;DHT22;8441;51.344;7.022;2023-06-14T07:30:05;19.90;89.20
16655;DHT22;8441;51.344;7.022;2023-06-14T07:32:32;20.20;88.90
16655;DHT22;8441;51.344;7.022;2023-06-14T07:35:00;20.50;88.80
16655;DHT22;8441;51.344;7.022;2023-06-14T07:37:27;20.60;89.00
16655;DHT22;8441;51.344;7.022;2023-06-14T07:39:54;20.80;88.60
16655;DHT22;8441;51.344;7.022;2023-06-14T07:42:21;21.00;87.30
16655;DHT22;8441;51.344;7.022;2023-06-14T07:44:50;21.20;86.70
16655;DHT22;8441;51.344;7.022;2023-06-14T07:47:18;21.20;87.20
16655;DHT22;8441;51.344;7.022;2023-06-14T07:49:45;21.40;87.60
16655;DHT22;8441;51.344;7.022;2023-06-14T07:52:12;21.50;86.10
16655;DHT22;8441;51.344;7.022;2023-06-14T07:54:39;21.40;85.20
16655;DHT22;8441;51.344;7.022;2023-06-14T07:57:06;21.20;85.20
16655;DHT22;8441;51.344;7.022;2023-06-14T07:59:34;21.30;85.90
16655;DHT22;8441;51.344;7.022;2023-06-14T08:02:03;21.40;85.80
16655;DHT22;8441;51.344;7.022;2023-06-14T08:04:31;21.40;87.00
16655;DHT22;8441;51.344;7.022;2023-06-14T08:06:58;21.50;87.40
16655;DHT22;8441;51.344;7.022;2023-06-14T08:09:26;21.40;86.40
16655;DHT22;8441;51.344;7.022;2023-06-14T08:11:54;21.30;87.50
16655;DHT22;8441;51.344;7.022;2023-06-14T08:14:22;21.00;86.90
16655;DHT22;8441;51.344;7.022;2023-06-14T08:16:49;21.00;87.30
16655;DHT22;8441;51.344;7.022;2023-06-14T08:19:18;21.00;86.40
16655;DHT22;8441;51.344;7.022;2023-06-14T08:21:45;21.00;87.80
16655;DHT22;8441;51.344;7.022;2023-06-14T08:24:13;21.10;87.90
16655;DHT22;8441;51.344;7.022;2023-06-14T08:26:40;21.20;87.30
16655;DHT22;8441;51.344;7.022;2023-06-14T08:29:07;21.10;86.90
16655;DHT22;8441;51.344;7.022;2023-06-14T08:31:34;21.10;87.40
16655;DHT22;8441;51.344;7.022;2023-06-14T08:34:02;21.30;88.40
16655;DHT22;8441;51.344;7.022;2023-06-14T08:36:30;21.10;87.60
16655;DHT22;8441;51.344;7.022;2023-06-14T08:38:57;21.10;88.10
16655;DHT22;8441;51.344;7.022;2023-06-14T08:41:24;21.10;88.10
16655;DHT22;8441;51.344;7.022;2023-06-14T08:43:52;21.10;86.90
16655;DHT22;8441;51.344;7.022;2023-06-14T08:46:20;20.80;86.40
16655;DHT22;8441;51.344;7.022;2023-06-14T08:48:49;20.50;86.80
16655;DHT22;8441;51.344;7.022;2023-06-14T08:51:18;20.70;88.80
16655;DHT22;8441;51.344;7.022;2023-06-14T08:53:52;20.60;85.80
16655;DHT22;8441;51.344;7.022;2023-06-14T08:56:20;20.80;88.30
16655;DHT22;8441;51.344;7.022;2023-06-14T08:58:49;20.90;87.90
16655;DHT22;8441;51.344;7.022;2023-06-14T09:01:16;21.10;83.60
16655;DHT22;8441;51.344;7.022;2023-06-14T09:03:43;21.00;83.60
16655;DHT22;8441;51.344;7.022;2023-06-14T09:06:11;20.90;83.10
16655;DHT22;8441;51.344;7.022;2023-06-14T09:08:42;20.40;82.60
16655;DHT22;8441;51.344;7.022;2023-06-14T09:11:12;20.40;83.10
16655;DHT22;8441;51.344;7.022;2023-06-14T09:13:40;20.50;82.00
16655;DHT22;8441;51.344;7.022;2023-06-14T09:16:08;20.70;83.70
16655;DHT22;8441;51.344;7.022;2023-06-14T09:18:35;21.00;83.20
16655;DHT22;8441;51.344;7.022;2023-06-14T09:21:03;20.90;83.30
16655;DHT22;8441;51.344;7.022;2023-06-14T09:23:33;21.00;83.00
16655;DHT22;8441;51.344;7.022;2023-06-14T09:26:06;20.70;82.50
16655;DHT22;8441;51.344;7.022;2023-06-14T09:28:35;20.70;83.80
16655;DHT22;8441;51.344;7.022;2023-06-14T09:31:03;20.90;83.50
16655;DHT22;8441;51.344;7.022;2023-06-14T09:33:31;21.10;83.40
16655;DHT22;8441;51.344;7.022;2023-06-14T09:35:59;21.20;84.20
16655;DHT22;8441;51.344;7.022;2023-06-14T09:38:26;21.00;83.30
16655;DHT22;8441;51.344;7.022;2023-06-14T09:40:58;21.00;84.00
16655;DHT22;8441;51.344;7.022;2023-06-14T09:43:25;21.20;84.80
16655;DHT22;8441;51.344;7.022;2023-06-14T09:45:55;21.50;82.30
16655;DHT22;8441;51.344;7.022;2023-06-14T09:48:24;21.10;81.00
16655;DHT22;8441;51.344;7.022;2023-06-14T09:50:51;21.10;80.70
16655;DHT22;8441;51.344;7.022;2023-06-14T09:53:21;21.30;81.00
16655;DHT22;8441;51.344;7.022;2023-06-14T09:55:49;21.30;81.70
16655;DHT22;8441;51.344;7.022;2023-06-14T09:58:20;21.40;81.90
16655;DHT22;8441;51.344;7.022;2023-06-14T10:00:50;21.50;82.60
16655;DHT22;8441;51.344;7.022;2023-06-14T10:03:25;21.60;83.90
16655;DHT22;8441;51.344;7.022;2023-06-14T10:05:55;21.70;82.20
16655;DHT22;8441;51.344;7.022;2023-06-14T10:08:28;21.60;80.90
16655;DHT22;8441;51.344;7.022;2023-06-14T10:10:58;21.50;82.10
16655;DHT22;8441;51.344;7.022;2023-06-14T10:13:27;21.50;81.30
16655;DHT22;8441;51.344;7.022;2023-06-14T10:16:00;21.50;82.70
16655;DHT22;8441;51.344;7.022;2023-06-14T10:18:40;21.50;82.50
16655;DHT22;8441;51.344;7.022;2023-06-14T10:21:16;21.70;81.30
16655;DHT22;8441;51.344;7.022;2023-06-14T10:23:46;21.80;81.60
16655;DHT22;8441;51.344;7.022;2023-06-14T10:26:19;21.90;81.00
16655;DHT22;8441;51.344;7.022;2023-06-14T10:28:56;22.00;80.70
16655;DHT22;8441;51.344;7.022;2023-06-14T10:31:40;22.10;80.60
16655;DHT22;8441;51.344;7.022;2023-06-14T10:34:09;22.00;81.30
16655;DHT22;8441;51.344;7.022;2023-06-14T10:36:37;22.10;79.70
16655;DHT22;8441;51.344;7.022;2023-06-14T10:39:07;22.30;82.30
16655;DHT22;8441;51.344;7.022;2023-06-14T10:41:38;22.10;82.10
16655;DHT22;8441;51.344;7.022;2023-06-14T10:44:40;21.90;82.30
16655;DHT22;8441;51.344;7.022;2023-06-14T10:47:10;22.00;82.70
16655;DHT22;8441;51.344;7.022;2023-06-14T10:49:41;22.10;82.30
16655;DHT22;8441;51.344;7.022;2023-06-14T10:52:10;22.10;83.60
16655;DHT22;8441;51.344;7.022;2023-06-14T10:55:07;21.90;83.20
16655;DHT22;8441;51.344;7.022;2023-06-14T10:57:37;22.10;83.80
16655;DHT22;8441;51.344;7.022;2023-06-14T11:00:06;22.30;83.40
16655;DHT22;8441;51.344;7.022;2023-06-14T11:05:57;22.40;82.40
16655;DHT22;8441;51.344;7.022;2023-06-14T11:11:38;22.00;82.10
16655;DHT22;8441;51.344;7.022;2023-06-14T11:14:06;22.10;82.90
16655;DHT22;8441;51.344;7.022;2023-06-14T11:16:34;22.30;82.00
16655;DHT22;8441;51.344;7.022;2023-06-14T11:19:01;22.50;81.70
16655;DHT22;8441;51.344;7.022;2023-06-14T11:21:32;22.60;81.80
16655;DHT22;8441;51.344;7.022;2023-06-14T11:23:59;22.80;81.40
16655;DHT22;8441;51.344;7.022;2023-06-14T11:26:27;22.50;81.30
16655;DHT22;8441;51.344;7.022;2023-06-14T11:28:58;22.30;81.20
16655;DHT22;8441;51.344;7.022;2023-06-14T11:31:25;22.50;82.40
16655;DHT22;8441;51.344;7.022;2023-06-14T11:33:54;22.50;82.20
16655;DHT22;8441;51.344;7.022;2023-06-14T11:36:22;22.70;82.50
16655;DHT22;8441;51.344;7.022;2023-06-14T11:38:58;22.90;81.60
16655;DHT22;8441;51.344;7.022;2023-06-14T11:41:26;22.90;81.50
16655;DHT22;8441;51.344;7.022;2023-06-14T11:44:00;22.90;81.80
16655;DHT22;8441;51.344;7.022;2023-06-14T11:46:27;22.90;82.00
16655;DHT22;8441;51.344;7.022;2023-06-14T11:48:54;23.00;81.80
16655;DHT22;8441;51.344;7.022;2023-06-14T11:51:21;23.00;81.00
16655;DHT22;8441;51.344;7.022;2023-06-14T11:53:50;22.90;82.30
16655;DHT22;8441;51.344;7.022;2023-06-14T11:56:18;23.00;83.00
16655;DHT22;8441;51.344;7.022;2023-06-14T11:58:45;23.20;80.70
16655;DHT22;8441;51.344;7.022;2023-06-14T12:01:16;22.80;80.90
16655;DHT22;8441;51.344;7.022;2023-06-14T12:03:48;22.90;83.20
16655;DHT22;8441;51.344;7.022;2023-06-14T12:06:15;23.10;82.60
16655;DHT22;8441;51.344;7.022;2023-06-14T12:08:43;23.20;82.60
16655;DHT22;8441;51.344;7.022;2023-06-14T12:11:13;23.40;82.80
16655;DHT22;8441;51.344;7.022;2023-06-14T12:13:43;23.50;81.30
16655;DHT22;8441;51.344;7.022;2023-06-14T12:16:11;23.50;81.50
16655;DHT22;8441;51.344;7.022;2023-06-14T12:18:40;23.30;81.00
16655;DHT22;8441;51.344;7.022;2023-06-14T12:21:10;23.00;81.10
16655;DHT22;8441;51.344;7.022;2023-06-14T12:23:43;22.60;80.90
16655;DHT22;8441;51.344;7.022;2023-06-14T12:26:14;22.80;83.10
16655;DHT22;8441;51.344;7.022;2023-06-14T12:28:42;22.90;82.30
16655;DHT22;8441;51.344;7.022;2023-06-14T12:31:11;23.00;81.80
16655;DHT22;8441;51.344;7.022;2023-06-14T12:33:39;23.00;82.90
16655;DHT22;8441;51.344;7.022;2023-06-14T12:36:07;23.20;82.10
16655;DHT22;8441;51.344;7.022;2023-06-14T12:38:36;23.30;83.00
16655;DHT22;8441;51.344;7.022;2023-06-14T12:41:03;23.30;81.60
16655;DHT22;8441;51.344;7.022;2023-06-14T12:43:32;23.40;81.10
16655;DHT22;8441;51.344;7.022;2023-06-14T12:45:59;23.50;81.50
16655;DHT22;8441;51.344;7.022;2023-06-14T12:48:26;23.80;82.50
16655;DHT22;8441;51.344;7.022;2023-06-14T12:50:55;24.00;81.40
16655;DHT22;8441;51.344;7.022;2023-06-14T12:53:24;23.70;81.10
16655;DHT22;8441;51.344;7.022;2023-06-14T12:55:51;23.50;81.60
16655;DHT22;8441;51.344;7.022;2023-06-14T12:58:18;23.40;80.70
16655;DHT22;8441;51.344;7.022;2023-06-14T13:00:48;23.40;82.00
16655;DHT22;8441;51.344;7.022;2023-06-14T13:03:15;23.50;81.60
16655;DHT22;8441;51.344;7.022;2023-06-14T13:05:42;23.50;81.60
16655;DHT22;8441;51.344;7.022;2023-06-14T13:08:09;23.60;81.90
16655;DHT22;8441;51.344;7.022;2023-06-14T13:10:36;23.80;80.80
16655;DHT22;8441;51.344;7.022;2023-06-14T13:13:04;23.70;82.30
16655;DHT22;8441;51.344;7.022;2023-06-14T13:15:33;23.90;82.10
16655;DHT22;8441;51.344;7.022;2023-06-14T13:18:01;23.90;81.30
16655;DHT22;8441;51.344;7.022;2023-06-14T13:20:29;23.80;79.40
16655;DHT22;8441;51.344;7.022;2023-06-14T13:22:56;24.10;80.10
16655;DHT22;8441;51.344;7.022;2023-06-14T13:25:23;24.20;80.40
16655;DHT22;8441;51.344;7.022;2023-06-14T13:27:50;24.20;79.80
16655;DHT22;8441;51.344;7.022;2023-06-14T13:30:17;24.10;78.40
16655;DHT22;8441;51.344;7.022;2023-06-14T13:32:44;23.90;80.30
16655;DHT22;8441;51.344;7.022;2023-06-14T13:35:13;23.90;79.70
16655;DHT22;8441;51.344;7.022;2023-06-14T13:37:40;24.00;81.00
16655;DHT22;8441;51.344;7.022;2023-06-14T13:40:08;24.10;80.30
16655;DHT22;8441;51.344;7.022;2023-06-14T13:42:36;24.10;80.20
16655;DHT22;8441;51.344;7.022;2023-06-14T14:28:51;24.40;78.20
16655;DHT22;8441;51.344;7.022;2023-06-14T14:40:48;25.00;78.40
16655;DHT22;8441;51.344;7.022;2023-06-14T14:43:15;24.90;76.00
16655;DHT22;8441;51.344;7.022;2023-06-14T14:45:44;24.80;76.60
16655;DHT22;8441;51.344;7.022;2023-06-14T14:48:11;24.70;77.80
16655;DHT22;8441;51.344;7.022;2023-06-14T14:50:38;24.70;77.60
16655;DHT22;8441;51.344;7.022;2023-06-14T14:53:06;24.50;76.50
16655;DHT22;8441;51.344;7.022;2023-06-14T14:55:33;24.50;77.40
16655;DHT22;8441;51.344;7.022;2023-06-14T14:58:01;24.50;77.30
16655;DHT22;8441;51.344;7.022;2023-06-14T15:00:29;24.60;76.20
16655;DHT22;8441;51.344;7.022;2023-06-14T15:02:58;24.50;77.50
16655;DHT22;8441;51.344;7.022;2023-06-14T15:05:25;24.50;77.00
16655;DHT22;8441;51.344;7.022;2023-06-14T15:07:53;24.50;76.30
16655;DHT22;8441;51.344;7.022;2023-06-14T15:10:20;24.40;76.80
16655;DHT22;8441;51.344;7.022;2023-06-14T15:12:47;24.50;77.30
16655;DHT22;8441;51.344;7.022;2023-06-14T15:15:15;24.60;76.90
16655;DHT22;8441;51.344;7.022;2023-06-14T15:17:42;24.50;76.80
16655;DHT22;8441;51.344;7.022;2023-06-14T15:20:12;24.40;77.20
16655;DHT22;8441;51.344;7.022;2023-06-14T15:22:40;24.50;76.90
16655;DHT22;8441;51.344;7.022;2023-06-14T15:25:08;24.70;76.40
16655;DHT22;8441;51.344;7.022;2023-06-14T15:27:35;24.50;76.60
16655;DHT22;8441;51.344;7.022;2023-06-14T15:30:03;24.50;76.20
16655;DHT22;8441;51.344;7.022;2023-06-14T15:32:30;24.20;76.00
16655;DHT22;8441;51.344;7.022;2023-06-14T15:34:57;24.30;76.80
16655;DHT22;8441;51.344;7.022;2023-06-14T15:37:26;24.30;76.80
16655;DHT22;8441;51.344;7.022;2023-06-14T15:39:53;24.40;77.70
16655;DHT22;8441;51.344;7.022;2023-06-14T15:42:20;24.70;77.20
16655;DHT22;8441;51.344;7.022;2023-06-14T15:44:47;24.80;75.50
16655;DHT22;8441;51.344;7.022;2023-06-14T15:47:14;24.80;76.50
16655;DHT22;8441;51.344;7.022;2023-06-14T15:49:41;24.70;76.50
16655;DHT22;8441;51.344;7.022;2023-06-14T15:52:08;24.90;76.40
16655;DHT22;8441;51.344;7.022;2023-06-14T15:54:37;25.00;76.50
16655;DHT22;8441;51.344;7.022;2023-06-14T15:57:05;25.10;75.70
16655;DHT22;8441;51.344;7.022;2023-06-14T15:59:32;24.90;75.10
16655;DHT22;8441;51.344;7.022;2023-06-14T16:01:59;24.90;75.10
16655;DHT22;8441;51.344;7.022;2023-06-14T16:04:27;25.00;75.20
16655;DHT22;8441;51.344;7.022;2023-06-14T16:06:55;25.10;74.70
16655;DHT22;8441;51.344;7.022;2023-06-14T16:09:22;25.30;74.60
16655;DHT22;8441;51.344;7.022;2023-06-14T16:11:50;25.10;73.90
16655;DHT22;8441;51.344;7.022;2023-06-14T16:14:18;25.10;73.80
16655;DHT22;8441;51.344;7.022;2023-06-14T16:16:45;24.90;74.60
16655;DHT22;8441;51.344;7.022;2023-06-14T16:19:13;25.10;74.00
16655;DHT22;8441;51.344;7.022;2023-06-14T16:21:40;25.20;73.60
16655;DHT22;8441;51.344;7.022;2023-06-14T16:24:08;25.40;73.40
16655;DHT22;8441;51.344;7.022;2023-06-14T16:26:35;25.30;73.10
16655;DHT22;8441;51.344;7.022;2023-06-14T16:29:03;25.30;73.30
16655;DHT22;8441;51.344;7.022;2023-06-14T16:31:30;25.70;74.30
16655;DHT22;8441;51.344;7.022;2023-06-14T16:33:58;25.70;73.70
16655;DHT22;8441;51.344;7.022;2023-06-14T16:36:25;25.70;73.10
16655;DHT22;8441;51.344;7.022;2023-06-14T16:38:52;25.90;73.60
16655;DHT22;8441;51.344;7.022;2023-06-14T16:41:19;25.50;72.90
16655;DHT22;8441;51.344;7.022;2023-06-14T16:43:46;25.60;72.70
16655;DHT22;8441;51.344;7.022;2023-06-14T16:46:27;25.50;72.70
16655;DHT22;8441;51.344;7.022;2023-06-14T16:48:55;25.50;72.90
16655;DHT22;8441;51.344;7.022;2023-06-14T16:51:22;25.50;72.30